Terminal Aerodrome Forecast
Issued by NWS Mt. Holly, NJ

Home | Current Version | Previous Version | Text Only | Print | Product List | Glossary On
Versions: 1 2 3 4 5 6 7 8 9 10 11 12 13 14 15 16 17
000
FTUS41 KPHI 011700 RRA
TAFTTN
TAF
KTTN 011750Z 0118/0218 28005KT P6SM OVC045
     FM020200 VRB04KT 2SM -SN BKN015
      TEMPO 0208/0210 -FZRASN BKN007
     FM021000 11005KT 2SM RA BKN007
      TEMPO 0212/0216 1SM +RA BKN004
     FM021600 24008KT 3SM RA BKN009=

USA.gov is the U.S. government's official web portal to all federal, state and local government web resources and services.